Nathaniel Bowditch — WDG4219 — position and weather

sailwx.info

Track history (hours):
 
Tides and Currents Weather Stations Pressure Air Temp Water Temp Dewpoint Dewpoint Depression Visibility Wind Speed Wind Dir Waves Ship Positions

Nathaniel Bowditch

Owner: Boston Harbor Cruises, Boston, MA. More information available from US FCC via Universal Licensing System and Coast Guard Vessel Documentation Center.

Last reported at 2017-Oct-29 21:28 UTC. Time now 2017-Nov-24 13:08 UTC.
Position N 42°31' W 070°53'.
Warning: this ship's position is 25 days out of date.

; draft 1.5 m.

Type: Passenger vessel. MMSI: 367534240.

Date/timePositionNaut miles runAvg speedWind from/ knotsBaromVisibWave heightAir tempDewpointWater temp
2017-Oct-29 21:28N 42°31' W 070°53'0 0.7
2017-Oct-29 21:00N 42°31' W 070°53'0 0.0
2017-Oct-28 01:45N 42°31' W 070°53'0 0.0
2017-Oct-28 01:30N 42°31' W 070°53'0 0.0
2017-Oct-28 01:00N 42°31' W 070°53'714.3
2017-Oct-28 00:31N 42°24' W 070°53'814.7
2017-Oct-27 23:59N 42°22' W 071°03'715.6
2017-Oct-27 23:31N 42°24' W 070°53'714.5
2017-Oct-27 23:00N 42°31' W 070°53'0 0.0
2017-Oct-27 22:30N 42°31' W 070°53'612.1
2017-Oct-27 22:01N 42°25' W 070°52'917.3
2017-Oct-27 21:30N 42°22' W 071°03'0 0.0
2017-Oct-27 21:00N 42°22' W 071°03'713.8
2017-Oct-27 20:31N 42°23' W 070°54'815.9
2017-Oct-27 20:00N 42°31' W 070°53'0 0.0
2017-Oct-27 19:30N 42°31' W 070°53'612.0
2017-Oct-27 19:01N 42°25' W 070°52'917.7
2017-Oct-27 18:30N 42°22' W 071°03'0 0.0
2017-Oct-27 18:00N 42°22' W 071°03'613.1
2017-Oct-27 17:31N 42°23' W 070°54'816.8
2017-Oct-27 17:01N 42°31' W 070°53'3 5.6
2017-Oct-27 16:30N 42°30' W 070°49'1224.2
2017-Oct-27 16:00N 42°20' W 070°59'3 6.2
2017-Oct-27 15:30N 42°22' W 071°03'816.0
2017-Oct-27 15:01N 42°24' W 070°53'713.7
2017-Oct-27 14:31N 42°31' W 070°53'714.4
2017-Oct-27 14:01N 42°24' W 070°53'815.1
2017-Oct-27 13:30N 42°22' W 071°03'0 0.0
2017-Oct-27 13:01N 42°22' W 071°03'0 0.0
2017-Oct-27 12:30N 42°22' W 071°03'0 0.0
2017-Oct-27 12:01N 42°22' W 071°03'815.5
2017-Oct-27 11:31N 42°24' W 070°53'714.1
2017-Oct-27 11:00N 42°31' W 070°53'0 0.0
2017-Oct-27 10:30N 42°31' W 070°53'0 0.0
2017-Oct-27 00:56N 42°31' W 070°53'613.3
2017-Oct-27 00:30N 42°26' W 070°52'918.2
2017-Oct-27 00:01N 42°22' W 071°03'713.5
2017-Oct-26 23:30N 42°23' W 070°54'816.1
2017-Oct-26 23:00N 42°31' W 070°53'0 0.0
2017-Oct-26 22:30N 42°31' W 070°53'611.8
2017-Oct-26 22:01N 42°25' W 070°52'917.8
2017-Oct-26 21:30N 42°22' W 071°03'0 0.0
2017-Oct-26 21:00N 42°22' W 071°03'714.7
2017-Oct-26 20:30N 42°24' W 070°53'814.9
2017-Oct-26 20:00N 42°31' W 070°53'0 0.0
2017-Oct-26 19:30N 42°31' W 070°53'713.2
2017-Oct-26 19:01N 42°25' W 070°53'816.0
2017-Oct-26 18:30N 42°22' W 071°03'0 0.0
2017-Oct-26 18:00N 42°22' W 071°03'714.1
2017-Oct-26 17:31N 42°24' W 070°54'815.5
2017-Oct-26 17:00N 42°31' W 070°53'2 5.0
2017-Oct-26 16:31N 42°31' W 070°50'1224.3
2017-Oct-26 16:01N 42°20' W 070°58'4 7.3
2017-Oct-26 15:30N 42°22' W 071°03'815.3
2017-Oct-26 15:01N 42°24' W 070°53'714.1
2017-Oct-26 14:31N 42°31' W 070°53'612.9
2017-Oct-26 14:01N 42°25' W 070°53'815.1
2017-Oct-26 13:28N 42°22' W 071°03'0 0.0
2017-Oct-26 13:00N 42°22' W 071°03'0 0.0
2017-Oct-26 12:30N 42°22' W 071°03'0 0.0
2017-Oct-26 12:00N 42°22' W 071°03'816.6
2017-Oct-26 11:31N 42°25' W 070°53'712.4
2017-Oct-26 10:59N 42°31' W 070°53'0 0.0
2017-Oct-25 17:06N 42°31' W 070°53'0 0.1
2017-Oct-25 17:00N 42°31' W 070°53'0 0.0
2017-Oct-25 16:30N 42°31' W 070°53'0 0.0
2017-Oct-25 16:00N 42°31' W 070°53'0 0.0
2017-Oct-25 15:30N 42°31' W 070°53'0 0.0
2017-Oct-25 15:00N 42°31' W 070°53'0 0.0
2017-Oct-25 14:30N 42°31' W 070°53'0 0.0
2017-Oct-25 14:00N 42°31' W 070°53'0 0.0
2017-Oct-25 13:30N 42°31' W 070°53'1 1.8
2017-Oct-25 13:00N 42°31' W 070°52'1 1.8
2017-Oct-25 12:30N 42°31' W 070°53'0 0.0
2017-Oct-25 12:00N 42°31' W 070°53'0 0.0
2017-Oct-25 11:30N 42°31' W 070°53'0 0.0
2017-Oct-25 11:00N 42°31' W 070°53'0 0.0
2017-Oct-25 10:30N 42°31' W 070°53'0 0.2
2017-Oct-25 10:00N 42°31' W 070°53'0 0.0
2017-Oct-24 16:50N 42°31' W 070°53'3 9.1
2017-Oct-24 16:31N 42°30' W 070°49'1223.6
2017-Oct-24 16:01N 42°20' W 070°59'3 6.4
2017-Oct-24 15:30N 42°22' W 071°03'816.7
2017-Oct-24 15:01N 42°24' W 070°52'713.4
2017-Oct-24 14:30N 42°31' W 070°53'714.3
2017-Oct-24 14:00N 42°24' W 070°53'815.9
2017-Oct-24 13:30N 42°22' W 071°03'0 0.1
2017-Oct-24 13:00N 42°22' W 071°03'0 0.1
2017-Oct-24 12:30N 42°22' W 071°03'0 0.0
2017-Oct-24 12:00N 42°22' W 071°03'816.0
2017-Oct-24 11:31N 42°25' W 070°53'713.4
2017-Oct-24 11:00N 42°31' W 070°53'0 0.0
2017-Oct-24 10:31N 42°31' W 070°53'0 0.0
2017-Oct-24 01:24N 42°31' W 070°53'0 0.0
2017-Oct-24 01:00N 42°31' W 070°53'611.1
2017-Oct-24 00:31N 42°26' W 070°52'914.6
2017-Oct-23 23:52N 42°22' W 071°03'718.0
2017-Oct-23 23:29N 42°24' W 070°54'815.9
2017-Oct-23 23:00N 42°31' W 070°53'0 0.0
2017-Oct-23 22:30N 42°31' W 070°53'612.0
2017-Oct-23 22:00N 42°25' W 070°52'9 9.9
2017-Oct-23 21:07N 42°22' W 071°03'0 0.5
2017-Oct-23 20:54N 42°22' W 071°03'717.1
2017-Oct-23 20:30N 42°24' W 070°54'815.2
2017-Oct-23 20:00N 42°31' W 070°53'0 0.0
2017-Oct-23 19:30N 42°31' W 070°53'713.4
2017-Oct-23 19:00N 42°25' W 070°53'8 8.9
2017-Oct-23 18:07N 42°22' W 071°03'0 0.5
2017-Oct-23 17:54N 42°22' W 071°03'717.8
2017-Oct-23 17:30N 42°24' W 070°54'815.1
2017-Oct-23 17:00N 42°31' W 070°53'4 7.1
2017-Oct-23 16:31N 42°29' W 070°49'1222.3
2017-Oct-23 15:58N 42°21' W 071°02'1 1.7
2017-Oct-23 15:28N 42°22' W 071°03'918.9
2017-Oct-23 15:00N 42°25' W 070°52'612.1
2017-Oct-23 14:30N 42°31' W 070°53'713.9
2017-Oct-23 14:00N 42°24' W 070°53'814.6
2017-Oct-23 13:28N 42°22' W 071°03'0 0.1
2017-Oct-23 11:56N 42°22' W 071°03'717.4
2017-Oct-23 11:31N 42°24' W 070°53'713.8
2017-Oct-23 11:01N 42°31' W 070°53'0 0.0
2017-Oct-23 10:30N 42°31' W 070°53'0 0.0
2017-Oct-23 01:01N 42°31' W 070°53'0 0.0
2017-Oct-23 01:00N 42°31' W 070°53'611.8
2017-Oct-23 00:31N 42°25' W 070°52'917.8
2017-Oct-23 00:01N 42°22' W 071°03'714.7
2017-Oct-22 23:30N 42°24' W 070°53'714.7
2017-Oct-22 23:00N 42°31' W 070°53'0 0.0
2017-Oct-22 22:30N 42°31' W 070°53'611.9
2017-Oct-22 22:01N 42°25' W 070°52'9 8.7
2017-Oct-22 20:59N 42°22' W 071°03'714.7
2017-Oct-22 20:30N 42°24' W 070°54'815.3
2017-Oct-22 20:00N 42°31' W 070°53'0 0.0
2017-Oct-22 19:30N 42°31' W 070°53'612.6
2017-Oct-22 19:00N 42°25' W 070°53'8 7.3
2017-Oct-22 17:52N 42°22' W 071°03'718.0
2017-Oct-22 17:30N 42°23' W 070°54'816.2
2017-Oct-22 17:00N 42°31' W 070°53'2 4.2
2017-Oct-22 16:30N 42°31' W 070°50'1323.3
2017-Oct-22 15:57N 42°21' W 071°00'2 4.7
2017-Oct-22 15:27N 42°22' W 071°03'818.7
2017-Oct-22 15:01N 42°25' W 070°53'612.3
2017-Oct-22 14:29N 42°31' W 070°53'916.0
2017-Oct-22 13:56N 42°23' W 070°55'614.3
2017-Oct-22 13:30N 42°22' W 071°03'0 0.0
2017-Oct-22 13:00N 42°22' W 071°03'714.6
2017-Oct-22 12:30N 42°24' W 070°54'815.1
2017-Oct-22 12:00N 42°31' W 070°53'0 0.0
2017-Oct-22 11:30N 42°31' W 070°53'0 0.0
2017-Oct-22 02:24N 42°31' W 070°53'0 0.0
2017-Oct-22 02:00N 42°31' W 070°53'815.2
2017-Oct-22 01:30N 42°24' W 070°54'714.3
2017-Oct-22 01:00N 42°22' W 071°03'815.4
2017-Oct-22 00:30N 42°24' W 070°53'714.2
2017-Oct-22 00:00N 42°31' W 070°53'0 0.0
2017-Oct-21 23:30N 42°31' W 070°53'0 0.0
2017-Oct-21 22:59N 42°31' W 070°53'0 0.0
2017-Oct-21 22:30N 42°31' W 070°53'611.6
2017-Oct-21 22:00N 42°26' W 070°52'911.2
2017-Oct-21 21:12N 42°22' W 071°03'0 1.2
2017-Oct-21 21:00N 42°22' W 071°03'1019.5
2017-Oct-21 20:31N 42°26' W 070°51'5 9.8
2017-Oct-21 20:00N 42°31' W 070°53'0 0.0
2017-Oct-21 19:31N 42°31' W 070°53'611.9
2017-Oct-21 19:00N 42°25' W 070°52'9 7.9
2017-Oct-21 17:54N 42°22' W 071°03'716.7
2017-Oct-21 17:30N 42°23' W 070°54'816.6
2017-Oct-21 17:00N 42°31' W 070°53'3 5.9
2017-Oct-21 16:30N 42°30' W 070°49'1320.3
2017-Oct-21 15:53N 42°22' W 071°03'0 0.9
2017-Oct-21 15:29N 42°22' W 071°03'817.9
2017-Oct-21 15:00N 42°25' W 070°52'612.3
2017-Oct-21 14:30N 42°31' W 070°53'1212.2
2017-Oct-21 13:30N 42°22' W 071°03'0 0.0
2017-Oct-21 13:00N 42°22' W 071°03'714.6
2017-Oct-21 12:30N 42°24' W 070°54'714.9
2017-Oct-21 12:00N 42°31' W 070°53'0 0.0
2017-Oct-21 01:34N 42°31' W 070°53'0 0.0
2017-Oct-21 01:30N 42°31' W 070°53'0 0.0
2017-Oct-21 01:00N 42°31' W 070°53'917.6
2017-Oct-21 00:29N 42°22' W 070°55'610.6
2017-Oct-20 23:56N 42°22' W 071°03'717.2
2017-Oct-20 23:30N 42°24' W 070°53'714.5
2017-Oct-20 23:00N 42°31' W 070°53'0 0.0
2017-Oct-20 22:31N 42°31' W 070°53'612.5
2017-Oct-20 22:01N 42°25' W 070°52'8 7.8
2017-Oct-20 20:55N 42°22' W 071°03'717.5
2017-Oct-20 20:30N 42°24' W 070°53'714.7
2017-Oct-20 20:00N 42°31' W 070°53'0 0.0
2017-Oct-20 19:30N 42°31' W 070°53'611.7
2017-Oct-20 19:00N 42°26' W 070°52'9 8.2
2017-Oct-20 17:55N 42°22' W 071°03'817.8
2017-Oct-20 17:28N 42°24' W 070°53'715.0
2017-Oct-20 17:00N 42°31' W 070°53'3 6.4
2017-Oct-20 16:31N 42°29' W 070°50'1218.6
2017-Oct-20 15:51N 42°22' W 071°02'0 0.9
2017-Oct-20 15:30N 42°22' W 071°03'816.2
2017-Oct-20 15:00N 42°25' W 070°53'1 0.8
2017-Oct-20 13:59N 42°24' W 070°53'7 5.1
2017-Oct-20 12:33N 42°22' W 071°03'0 0.0
2017-Oct-20 12:30N 42°22' W 071°03'0 0.2
2017-Oct-20 11:56N 42°22' W 071°03'817.8
2017-Oct-20 11:30N 42°24' W 070°53'714.6
2017-Oct-20 11:01N 42°31' W 070°53'0 0.0
2017-Oct-20 10:30N 42°31' W 070°53'0 0.0
2017-Oct-20 10:00N 42°31' W 070°53'0 0.0
2017-Oct-20 00:56N 42°31' W 070°53'613.8
2017-Oct-20 00:31N 42°25' W 070°52'915.7
2017-Oct-19 23:56N 42°22' W 071°03'716.4
2017-Oct-19 23:31N 42°23' W 070°54'816.1
2017-Oct-19 23:00N 42°31' W 070°53'0 0.0
2017-Oct-19 22:30N 42°31' W 070°53'611.7
2017-Oct-19 22:01N 42°26' W 070°52'917.6
2017-Oct-19 21:30N 42°22' W 071°03'  
Track history (hours):
 
Tides and Currents Weather Stations Pressure Air Temp Water Temp Dewpoint Dewpoint Depression Visibility Wind Speed Wind Dir Waves Ship Positions

Nathaniel Bowditch

Owner: Boston Harbor Cruises, Boston, MA. More information available from US FCC via Universal Licensing System and Coast Guard Vessel Documentation Center.

Last reported at 2017-Oct-29 21:28 UTC. Time now 2017-Nov-24 13:08 UTC.
Position N 42°31' W 070°53'.
Warning: this ship's position is 25 days out of date.

; draft 1.5 m.

Type: Passenger vessel. MMSI: 367534240.

Date/timePositionNaut miles runAvg speedWind from/ knotsBaromVisibWave heightAir tempDewpointWater temp
2017-Oct-29 21:28N 42°31' W 070°53'0 0.7
2017-Oct-29 21:00N 42°31' W 070°53'0 0.0
2017-Oct-28 01:45N 42°31' W 070°53'0 0.0
2017-Oct-28 01:30N 42°31' W 070°53'0 0.0
2017-Oct-28 01:00N 42°31' W 070°53'714.3
2017-Oct-28 00:31N 42°24' W 070°53'814.7
2017-Oct-27 23:59N 42°22' W 071°03'715.6
2017-Oct-27 23:31N 42°24' W 070°53'714.5
2017-Oct-27 23:00N 42°31' W 070°53'0 0.0
2017-Oct-27 22:30N 42°31' W 070°53'612.1
2017-Oct-27 22:01N 42°25' W 070°52'917.3
2017-Oct-27 21:30N 42°22' W 071°03'0 0.0
2017-Oct-27 21:00N 42°22' W 071°03'713.8
2017-Oct-27 20:31N 42°23' W 070°54'815.9
2017-Oct-27 20:00N 42°31' W 070°53'0 0.0
2017-Oct-27 19:30N 42°31' W 070°53'612.0
2017-Oct-27 19:01N 42°25' W 070°52'917.7
2017-Oct-27 18:30N 42°22' W 071°03'0 0.0
2017-Oct-27 18:00N 42°22' W 071°03'613.1
2017-Oct-27 17:31N 42°23' W 070°54'816.8
2017-Oct-27 17:01N 42°31' W 070°53'3 5.6
2017-Oct-27 16:30N 42°30' W 070°49'1224.2
2017-Oct-27 16:00N 42°20' W 070°59'3 6.2
2017-Oct-27 15:30N 42°22' W 071°03'816.0
2017-Oct-27 15:01N 42°24' W 070°53'713.7
2017-Oct-27 14:31N 42°31' W 070°53'714.4
2017-Oct-27 14:01N 42°24' W 070°53'815.1
2017-Oct-27 13:30N 42°22' W 071°03'0 0.0
2017-Oct-27 13:01N 42°22' W 071°03'0 0.0
2017-Oct-27 12:30N 42°22' W 071°03'0 0.0
2017-Oct-27 12:01N 42°22' W 071°03'815.5
2017-Oct-27 11:31N 42°24' W 070°53'714.1
2017-Oct-27 11:00N 42°31' W 070°53'0 0.0
2017-Oct-27 10:30N 42°31' W 070°53'0 0.0
2017-Oct-27 00:56N 42°31' W 070°53'613.3
2017-Oct-27 00:30N 42°26' W 070°52'918.2
2017-Oct-27 00:01N 42°22' W 071°03'713.5
2017-Oct-26 23:30N 42°23' W 070°54'816.1
2017-Oct-26 23:00N 42°31' W 070°53'0 0.0
2017-Oct-26 22:30N 42°31' W 070°53'611.8
2017-Oct-26 22:01N 42°25' W 070°52'917.8
2017-Oct-26 21:30N 42°22' W 071°03'0 0.0
2017-Oct-26 21:00N 42°22' W 071°03'714.7
2017-Oct-26 20:30N 42°24' W 070°53'814.9
2017-Oct-26 20:00N 42°31' W 070°53'0 0.0
2017-Oct-26 19:30N 42°31' W 070°53'713.2
2017-Oct-26 19:01N 42°25' W 070°53'816.0
2017-Oct-26 18:30N 42°22' W 071°03'0 0.0
2017-Oct-26 18:00N 42°22' W 071°03'714.1
2017-Oct-26 17:31N 42°24' W 070°54'815.5
2017-Oct-26 17:00N 42°31' W 070°53'2 5.0
2017-Oct-26 16:31N 42°31' W 070°50'1224.3
2017-Oct-26 16:01N 42°20' W 070°58'4 7.3
2017-Oct-26 15:30N 42°22' W 071°03'815.3
2017-Oct-26 15:01N 42°24' W 070°53'714.1
2017-Oct-26 14:31N 42°31' W 070°53'612.9
2017-Oct-26 14:01N 42°25' W 070°53'815.1
2017-Oct-26 13:28N 42°22' W 071°03'0 0.0
2017-Oct-26 13:00N 42°22' W 071°03'0 0.0
2017-Oct-26 12:30N 42°22' W 071°03'0 0.0
2017-Oct-26 12:00N 42°22' W 071°03'816.6
2017-Oct-26 11:31N 42°25' W 070°53'712.4
2017-Oct-26 10:59N 42°31' W 070°53'0 0.0
2017-Oct-25 17:06N 42°31' W 070°53'0 0.1
2017-Oct-25 17:00N 42°31' W 070°53'0 0.0
2017-Oct-25 16:30N 42°31' W 070°53'0 0.0
2017-Oct-25 16:00N 42°31' W 070°53'0 0.0
2017-Oct-25 15:30N 42°31' W 070°53'0 0.0
2017-Oct-25 15:00N 42°31' W 070°53'0 0.0
2017-Oct-25 14:30N 42°31' W 070°53'0 0.0
2017-Oct-25 14:00N 42°31' W 070°53'0 0.0
2017-Oct-25 13:30N 42°31' W 070°53'1 1.8
2017-Oct-25 13:00N 42°31' W 070°52'1 1.8
2017-Oct-25 12:30N 42°31' W 070°53'0 0.0
2017-Oct-25 12:00N 42°31' W 070°53'0 0.0
2017-Oct-25 11:30N 42°31' W 070°53'0 0.0
2017-Oct-25 11:00N 42°31' W 070°53'0 0.0
2017-Oct-25 10:30N 42°31' W 070°53'0 0.2
2017-Oct-25 10:00N 42°31' W 070°53'0 0.0
2017-Oct-24 16:50N 42°31' W 070°53'3 9.1
2017-Oct-24 16:31N 42°30' W 070°49'1223.6
2017-Oct-24 16:01N 42°20' W 070°59'3 6.4
2017-Oct-24 15:30N 42°22' W 071°03'816.7
2017-Oct-24 15:01N 42°24' W 070°52'713.4
2017-Oct-24 14:30N 42°31' W 070°53'714.3
2017-Oct-24 14:00N 42°24' W 070°53'815.9
2017-Oct-24 13:30N 42°22' W 071°03'0 0.1
2017-Oct-24 13:00N 42°22' W 071°03'0 0.1
2017-Oct-24 12:30N 42°22' W 071°03'0 0.0
2017-Oct-24 12:00N 42°22' W 071°03'816.0
2017-Oct-24 11:31N 42°25' W 070°53'713.4
2017-Oct-24 11:00N 42°31' W 070°53'0 0.0
2017-Oct-24 10:31N 42°31' W 070°53'0 0.0
2017-Oct-24 01:24N 42°31' W 070°53'0 0.0
2017-Oct-24 01:00N 42°31' W 070°53'611.1
2017-Oct-24 00:31N 42°26' W 070°52'914.6
2017-Oct-23 23:52N 42°22' W 071°03'718.0
2017-Oct-23 23:29N 42°24' W 070°54'815.9
2017-Oct-23 23:00N 42°31' W 070°53'0 0.0
2017-Oct-23 22:30N 42°31' W 070°53'612.0
2017-Oct-23 22:00N 42°25' W 070°52'9 9.9
2017-Oct-23 21:07N 42°22' W 071°03'0 0.5
2017-Oct-23 20:54N 42°22' W 071°03'717.1
2017-Oct-23 20:30N 42°24' W 070°54'815.2
2017-Oct-23 20:00N 42°31' W 070°53'0 0.0
2017-Oct-23 19:30N 42°31' W 070°53'713.4
2017-Oct-23 19:00N 42°25' W 070°53'8 8.9
2017-Oct-23 18:07N 42°22' W 071°03'0 0.5
2017-Oct-23 17:54N 42°22' W 071°03'717.8
2017-Oct-23 17:30N 42°24' W 070°54'815.1
2017-Oct-23 17:00N 42°31' W 070°53'4 7.1
2017-Oct-23 16:31N 42°29' W 070°49'1222.3
2017-Oct-23 15:58N 42°21' W 071°02'1 1.7
2017-Oct-23 15:28N 42°22' W 071°03'918.9
2017-Oct-23 15:00N 42°25' W 070°52'612.1
2017-Oct-23 14:30N 42°31' W 070°53'713.9
2017-Oct-23 14:00N 42°24' W 070°53'814.6
2017-Oct-23 13:28N 42°22' W 071°03'0 0.1
2017-Oct-23 11:56N 42°22' W 071°03'717.4
2017-Oct-23 11:31N 42°24' W 070°53'713.8
2017-Oct-23 11:01N 42°31' W 070°53'0 0.0
2017-Oct-23 10:30N 42°31' W 070°53'0 0.0
2017-Oct-23 01:01N 42°31' W 070°53'0 0.0
2017-Oct-23 01:00N 42°31' W 070°53'611.8
2017-Oct-23 00:31N 42°25' W 070°52'917.8
2017-Oct-23 00:01N 42°22' W 071°03'714.7
2017-Oct-22 23:30N 42°24' W 070°53'714.7
2017-Oct-22 23:00N 42°31' W 070°53'0 0.0
2017-Oct-22 22:30N 42°31' W 070°53'611.9
2017-Oct-22 22:01N 42°25' W 070°52'9 8.7
2017-Oct-22 20:59N 42°22' W 071°03'714.7
2017-Oct-22 20:30N 42°24' W 070°54'815.3
2017-Oct-22 20:00N 42°31' W 070°53'0 0.0
2017-Oct-22 19:30N 42°31' W 070°53'612.6
2017-Oct-22 19:00N 42°25' W 070°53'8 7.3
2017-Oct-22 17:52N 42°22' W 071°03'718.0
2017-Oct-22 17:30N 42°23' W 070°54'816.2
2017-Oct-22 17:00N 42°31' W 070°53'2 4.2
2017-Oct-22 16:30N 42°31' W 070°50'1323.3
2017-Oct-22 15:57N 42°21' W 071°00'2 4.7
2017-Oct-22 15:27N 42°22' W 071°03'818.7
2017-Oct-22 15:01N 42°25' W 070°53'612.3
2017-Oct-22 14:29N 42°31' W 070°53'916.0
2017-Oct-22 13:56N 42°23' W 070°55'614.3
2017-Oct-22 13:30N 42°22' W 071°03'0 0.0
2017-Oct-22 13:00N 42°22' W 071°03'714.6
2017-Oct-22 12:30N 42°24' W 070°54'815.1
2017-Oct-22 12:00N 42°31' W 070°53'0 0.0
2017-Oct-22 11:30N 42°31' W 070°53'0 0.0
2017-Oct-22 02:24N 42°31' W 070°53'0 0.0
2017-Oct-22 02:00N 42°31' W 070°53'815.2
2017-Oct-22 01:30N 42°24' W 070°54'714.3
2017-Oct-22 01:00N 42°22' W 071°03'815.4
2017-Oct-22 00:30N 42°24' W 070°53'714.2
2017-Oct-22 00:00N 42°31' W 070°53'0 0.0
2017-Oct-21 23:30N 42°31' W 070°53'0 0.0
2017-Oct-21 22:59N 42°31' W 070°53'0 0.0
2017-Oct-21 22:30N 42°31' W 070°53'611.6
2017-Oct-21 22:00N 42°26' W 070°52'911.2
2017-Oct-21 21:12N 42°22' W 071°03'0 1.2
2017-Oct-21 21:00N 42°22' W 071°03'1019.5
2017-Oct-21 20:31N 42°26' W 070°51'5 9.8
2017-Oct-21 20:00N 42°31' W 070°53'0 0.0
2017-Oct-21 19:31N 42°31' W 070°53'611.9
2017-Oct-21 19:00N 42°25' W 070°52'9 7.9
2017-Oct-21 17:54N 42°22' W 071°03'716.7
2017-Oct-21 17:30N 42°23' W 070°54'816.6
2017-Oct-21 17:00N 42°31' W 070°53'3 5.9
2017-Oct-21 16:30N 42°30' W 070°49'1320.3
2017-Oct-21 15:53N 42°22' W 071°03'0 0.9
2017-Oct-21 15:29N 42°22' W 071°03'817.9
2017-Oct-21 15:00N 42°25' W 070°52'612.3
2017-Oct-21 14:30N 42°31' W 070°53'1212.2
2017-Oct-21 13:30N 42°22' W 071°03'0 0.0
2017-Oct-21 13:00N 42°22' W 071°03'714.6
2017-Oct-21 12:30N 42°24' W 070°54'714.9
2017-Oct-21 12:00N 42°31' W 070°53'0 0.0
2017-Oct-21 01:34N 42°31' W 070°53'0 0.0
2017-Oct-21 01:30N 42°31' W 070°53'0 0.0
2017-Oct-21 01:00N 42°31' W 070°53'917.6
2017-Oct-21 00:29N 42°22' W 070°55'610.6
2017-Oct-20 23:56N 42°22' W 071°03'717.2
2017-Oct-20 23:30N 42°24' W 070°53'714.5
2017-Oct-20 23:00N 42°31' W 070°53'0 0.0
2017-Oct-20 22:31N 42°31' W 070°53'612.5
2017-Oct-20 22:01N 42°25' W 070°52'8 7.8
2017-Oct-20 20:55N 42°22' W 071°03'717.5
2017-Oct-20 20:30N 42°24' W 070°53'714.7
2017-Oct-20 20:00N 42°31' W 070°53'0 0.0
2017-Oct-20 19:30N 42°31' W 070°53'611.7
2017-Oct-20 19:00N 42°26' W 070°52'9 8.2
2017-Oct-20 17:55N 42°22' W 071°03'817.8
2017-Oct-20 17:28N 42°24' W 070°53'715.0
2017-Oct-20 17:00N 42°31' W 070°53'3 6.4
2017-Oct-20 16:31N 42°29' W 070°50'1218.6
2017-Oct-20 15:51N 42°22' W 071°02'0 0.9
2017-Oct-20 15:30N 42°22' W 071°03'816.2
2017-Oct-20 15:00N 42°25' W 070°53'1 0.8
2017-Oct-20 13:59N 42°24' W 070°53'7 5.1
2017-Oct-20 12:33N 42°22' W 071°03'0 0.0
2017-Oct-20 12:30N 42°22' W 071°03'0 0.2
2017-Oct-20 11:56N 42°22' W 071°03'817.8
2017-Oct-20 11:30N 42°24' W 070°53'714.6
2017-Oct-20 11:01N 42°31' W 070°53'0 0.0
2017-Oct-20 10:30N 42°31' W 070°53'0 0.0
2017-Oct-20 10:00N 42°31' W 070°53'0 0.0
2017-Oct-20 00:56N 42°31' W 070°53'613.8
2017-Oct-20 00:31N 42°25' W 070°52'915.7
2017-Oct-19 23:56N 42°22' W 071°03'716.4
2017-Oct-19 23:31N 42°23' W 070°54'816.1
2017-Oct-19 23:00N 42°31' W 070°53'0 0.0
2017-Oct-19 22:30N 42°31' W 070°53'611.7
2017-Oct-19 22:01N 42°26' W 070°52'917.6
2017-Oct-19 21:30N 42°22' W 071°03'  

Dump ship's entire track history